METAR Reports

Area Airport Weather Conditions

KBDL - Windsor Locks, Connecticut, USA
Distance from station: NE 45mi, 72km
Updated: 8:51PM EDT, September 20, 2018
Mostly cloudy
Mostly cloudy
 Wind from ESE
Wind: ESE 8 mph , 13 km/h
Temperature: 64°F , 18°C
Dew Point: 57°F , 14°C
Humidity: 78%
Barometer: 30.27 inHg , 1025.1 hPa
Clouds: Mostly cloudy
Visibility: 10 miles , 16 km
Cloud details: Few Clouds 2000 ft
Mostly cloudy 3700 ft
Mostly cloudy 5500 ft
2018/09/21 00:51 KBDL 210051Z 11007KT 10SM FEW020 BKN037 BKN055 18/14 A3027 RMK AO2 SLP249 T01830139
KDXR - Danbury, Connecticut, USA
Distance from station: SSW 15mi, 24km
Updated: 8:53PM EDT, September 20, 2018
Overcast
Overcast
 Wind from SE
Wind: SE 5 mph , 7 km/h
Temperature: 64°F , 18°C
Dew Point: 59°F , 15°C
Humidity: 83%
Barometer: 30.27 inHg , 1025.1 hPa
Clouds: Overcast
Visibility: 10 miles , 16 km
Cloud details: Few Clouds 3000 ft
Overcast 4800 ft
2018/09/21 00:53 KDXR 210053Z 14004KT 10SM FEW030 OVC048 18/15 A3027 RMK AO2 SLP248 T01830150
 
KOXC - Oxford/Waterbury, Connecticut, USA
Distance from station: ESE 16mi, 26km
Updated: 8:51PM EDT, September 20, 2018
Overcast
Overcast
 Wind from SE
Wind: SE 3 mph , 6 km/h
Temperature: 64°F , 18°C
Dew Point: 61°F , 16°C
Humidity: 88%
Barometer: 30.28 inHg , 1025.4 hPa
Clouds: Overcast
Visibility: 10 miles , 16 km
Cloud details: Few Clouds 3500 ft
Overcast 4700 ft
2018/09/21 00:51 KOXC 210051Z 14003KT 10SM FEW035 OVC047 18/16 A3028 RMK AO2 SLP263 T01780156
KPOU - Poughkeepsie, New York, USA
Distance from station: W 25mi, 40km
Updated: 7:53PM EDT, September 20, 2018
Overcast
Overcast
 Wind from calm
Wind: Calm
Temperature: 66°F , 19°C
Dew Point: 61°F , 16°C
Humidity: 83%
Barometer: 30.22 inHg , 1023.4 hPa
Clouds: Overcast
Visibility: 10 miles , 16 km
Cloud details: Overcast 5000 ft
2018/09/20 23:53 KPOU 202353Z 00000KT 10SM OVC050 19/16 A3022 RMK AO2 SLP229 T01890156 10206 20189 53004
 
KMMK - Meriden, Connecticut, USA
Distance from station: E 30mi, 48km
Updated: 8:53PM EDT, September 20, 2018
Overcast
Overcast
 Wind from calm
Wind: Calm
Temperature: 64°F , 18°C
Dew Point: 57°F , 14°C
Humidity: 78%
Barometer: 30.27 inHg , 1025.1 hPa
Clouds: Overcast
Visibility: 10 miles , 16 km
Cloud details: Overcast 5000 ft
2018/09/21 00:53 KMMK 210053Z AUTO 00000KT 10SM OVC050 18/14 A3027 RMK AO2 SLP247 T01830144
KBDR - Bridgeport, Connecticut, USA
Distance from station: SSE 32mi, 51km
Updated: 8:52PM EDT, September 20, 2018
Overcast
Overcast
 Wind from SSE
Wind: SSE 9 mph , 15 km/h
Temperature: 68°F , 20°C
Dew Point: 61°F , 16°C
Humidity: 78%
Barometer: 30.26 inHg , 1024.7 hPa
Clouds: Overcast
Visibility: 10 miles , 16 km
Cloud details: Few Clouds 2000 ft
Partly cloudy 3400 ft
Overcast 4800 ft
2018/09/21 00:52 KBDR 210052Z 15008KT 10SM FEW020 SCT034 OVC048 20/16 A3026 RMK AO2 SLP245 T02000156
 
KHVN - New Haven/Tweed, Connecticut, USA
Distance from station: SE 35mi, 57km
Updated: 8:53PM EDT, September 20, 2018
Light rain, Overcast
Light rain, Overcast
 Wind from SSE
Wind: SSE 9 mph , 15 km/h
Temperature: 68°F , 20°C
Dew Point: 63°F , 17°C
Humidity: 83%
Barometer: 30.26 inHg , 1024.7 hPa
Summary: Light rain
Clouds: Overcast
Visibility: 10 miles , 16 km
Cloud details: Overcast 2300 ft
2018/09/21 00:53 KHVN 210053Z 15008KT 10SM -RA OVC023 20/17 A3026 RMK AO2 RAB49 SLP247 P0000 T02000167
KSWF - Newburgh/Stewart, New York, USA
Distance from station: W 35mi, 57km
Updated: 8:45PM EDT, September 20, 2018
Overcast
Overcast
 Wind from calm
Wind: Calm
Temperature: 66°F , 19°C
Dew Point: 59°F , 15°C
Humidity: 78%
Barometer: 30.25 inHg , 1024.4 hPa
Clouds: Overcast
Visibility: 10 miles , 16 km
Cloud details: Mostly cloudy 3000 ft
Overcast 5000 ft
2018/09/21 00:45 KSWF 210045Z 00000KT 10SM BKN030 OVC050 19/15 A3025
 
KHPN - White Plains, New York, USA
Distance from station: SSW 38mi, 62km
Updated: 7:56PM EDT, September 20, 2018
Mostly cloudy
Mostly cloudy
 Wind from S
Wind: S 5 mph , 7 km/h
Temperature: 66°F , 19°C
Dew Point: 61°F , 16°C
Humidity: 83%
Barometer: 30.24 inHg , 1024 hPa
Clouds: Mostly cloudy
Visibility: 10 miles , 16 km
Cloud details: Few Clouds 1000 ft
Mostly cloudy 3800 ft
2018/09/20 23:56 KHPN 202356Z 17004KT 10SM FEW010 BKN038 19/16 A3024 RMK AO2 SLP236 T01890156 10217 20183 50006
KHFD - Hartford/Brainar, Connecticut, USA
Distance from station: ENE 41mi, 65km
Updated: 8:53PM EDT, September 20, 2018
Overcast
Overcast
 Wind from SSE
Wind: SSE 9 mph , 15 km/h
Temperature: 66°F , 19°C
Dew Point: 61°F , 16°C
Humidity: 83%
Barometer: 30.26 inHg , 1024.7 hPa
Clouds: Overcast
Visibility: 10 miles , 16 km
Cloud details: Mostly cloudy 3300 ft
Overcast 5000 ft
2018/09/21 00:53 KHFD 210053Z 15008KT 10SM BKN033 OVC050 19/16 A3026 RMK AO2 SLP248 T01890156